createdAt,value
2023-03-22T00:00:36.333Z,14.30
2023-03-22T00:03:04.771Z,14.30
2023-03-22T00:05:34.143Z,14.30
2023-03-22T00:08:07.174Z,14.30
2023-03-22T00:10:43.024Z,14.20
2023-03-22T00:13:11.778Z,14.20
2023-03-22T00:15:39.496Z,14.20
2023-03-22T00:18:08.969Z,14.20
2023-03-22T00:20:38.527Z,14.20
2023-03-22T00:23:09.144Z,14.10
2023-03-22T00:25:38.428Z,14.10
2023-03-22T00:28:08.039Z,14.10
2023-03-22T00:30:37.719Z,14.10
2023-03-22T00:33:10.285Z,14.00
2023-03-22T00:35:39.747Z,14.00
2023-03-22T00:38:14.220Z,14.00
2023-03-22T00:40:51.575Z,14.00
2023-03-22T00:43:23.726Z,14.00
2023-03-22T00:45:50.997Z,14.00
2023-03-22T00:48:20.344Z,14.00
2023-03-22T00:50:57.548Z,14.00
2023-03-22T00:53:26.196Z,13.90
2023-03-22T00:55:53.344Z,13.90
2023-03-22T00:58:23.204Z,13.90
2023-03-22T01:00:55.335Z,13.90
2023-03-22T01:03:22.507Z,13.90
2023-03-22T01:05:55.599Z,13.90
2023-03-22T01:08:33.639Z,13.90
2023-03-22T01:11:03.815Z,13.90
2023-03-22T01:13:33.578Z,13.90
2023-03-22T01:16:03.870Z,13.90
2023-03-22T01:18:31.935Z,13.90
2023-03-22T01:21:02.121Z,13.80
2023-03-22T01:23:31.926Z,13.90
2023-03-22T01:25:59.187Z,13.90
2023-03-22T01:28:27.281Z,13.80
2023-03-22T01:30:55.307Z,13.80
2023-03-22T01:33:22.999Z,13.80
2023-03-22T01:35:50.200Z,13.80
2023-03-22T01:38:17.360Z,13.80
2023-03-22T01:40:46.738Z,13.80
2023-03-22T01:43:17.106Z,13.70
2023-03-22T01:45:52.151Z,13.70
2023-03-22T01:48:34.163Z,13.70
2023-03-22T01:51:16.891Z,13.70
2023-03-22T01:53:55.139Z,13.70
2023-03-22T01:56:27.624Z,13.70
2023-03-22T01:58:56.546Z,13.70
2023-03-22T02:01:24.312Z,13.60
2023-03-22T02:04:16.503Z,13.60
2023-03-22T02:06:47.166Z,13.60
2023-03-22T02:09:18.310Z,13.60
2023-03-22T02:12:18.984Z,13.60
2023-03-22T02:15:15.863Z,13.60
2023-03-22T02:18:06.804Z,13.50
2023-03-22T02:21:02.512Z,13.60
2023-03-22T02:24:01.610Z,13.50
2023-03-22T02:27:06.621Z,13.50
2023-03-22T02:29:41.521Z,13.50
2023-03-22T02:32:32.487Z,13.40
2023-03-22T02:35:27.939Z,13.40
2023-03-22T02:38:16.836Z,13.40
2023-03-22T02:40:55.304Z,13.40
2023-03-22T02:43:34.372Z,13.40
2023-03-22T02:46:06.748Z,13.30
2023-03-22T02:48:53.257Z,13.30
2023-03-22T02:51:29.590Z,13.30
2023-03-22T02:54:09.444Z,13.30
2023-03-22T02:57:16.886Z,13.30
2023-03-22T02:59:45.961Z,13.30
2023-03-22T03:02:19.680Z,13.30
2023-03-22T03:04:50.391Z,13.30
2023-03-22T03:07:25.946Z,13.30
2023-03-22T03:09:56.358Z,13.30
2023-03-22T03:12:30.302Z,13.30
2023-03-22T03:14:57.754Z,13.40
2023-03-22T03:17:34.030Z,13.40
2023-03-22T03:20:24.587Z,13.40
2023-03-22T03:23:08.548Z,13.40
2023-03-22T03:25:53.911Z,13.40
2023-03-22T03:28:45.327Z,13.40
2023-03-22T03:31:29.372Z,13.40
2023-03-22T03:34:29.112Z,13.40
2023-03-22T03:37:11.703Z,13.40
2023-03-22T03:39:44.586Z,13.40
2023-03-22T03:42:15.315Z,13.40
2023-03-22T03:44:43.451Z,13.40
2023-03-22T03:47:14.269Z,13.30
2023-03-22T03:49:43.885Z,13.40
2023-03-22T03:52:16.218Z,13.30
2023-03-22T03:54:45.752Z,13.30
2023-03-22T03:57:12.882Z,13.30
2023-03-22T03:59:40.400Z,13.30
2023-03-22T04:02:07.614Z,13.30
2023-03-22T04:04:35.547Z,13.20
2023-03-22T04:07:05.390Z,13.20
2023-03-22T04:09:38.782Z,13.20
2023-03-22T04:12:06.178Z,13.20
2023-03-22T04:14:35.612Z,13.20
2023-03-22T04:17:02.763Z,13.20
2023-03-22T04:19:29.853Z,13.20
2023-03-22T04:22:00.308Z,13.20
2023-03-22T04:24:27.564Z,13.10
2023-03-22T04:26:54.777Z,13.10
2023-03-22T04:29:26.416Z,13.20
2023-03-22T04:31:56.008Z,13.10
2023-03-22T04:34:23.145Z,13.10
2023-03-22T04:36:57.196Z,13.10
2023-03-22T04:39:26.678Z,13.10
2023-03-22T04:41:59.360Z,13.10
2023-03-22T04:44:26.598Z,13.10
2023-03-22T04:46:55.991Z,13.10
2023-03-22T04:49:23.124Z,13.10
2023-03-22T04:51:50.570Z,13.10
2023-03-22T04:54:20.398Z,13.10
2023-03-22T04:56:50.575Z,13.10
2023-03-22T04:59:21.197Z,13.10
2023-03-22T05:01:51.520Z,13.10
2023-03-22T05:04:21.619Z,13.10
2023-03-22T05:06:49.050Z,13.10
2023-03-22T05:09:16.562Z,13.10
2023-03-22T05:11:43.710Z,13.10
2023-03-22T05:14:11.115Z,13.10
2023-03-22T05:16:41.024Z,13.10
2023-03-22T05:19:14.148Z,13.10
2023-03-22T05:21:44.997Z,13.10
2023-03-22T05:24:17.187Z,13.10
2023-03-22T05:26:46.331Z,13.10
2023-03-22T05:29:18.023Z,13.10
2023-03-22T05:31:47.496Z,13.00
2023-03-22T05:34:14.723Z,13.10
2023-03-22T05:36:46.369Z,13.00
2023-03-22T05:39:15.942Z,13.00
2023-03-22T05:41:43.093Z,13.00
2023-03-22T05:44:12.506Z,13.00
2023-03-22T05:46:44.193Z,13.00
2023-03-22T05:49:13.407Z,13.00
2023-03-22T05:51:42.605Z,13.00
2023-03-22T05:54:12.246Z,13.10
2023-03-22T05:56:40.701Z,13.10
2023-03-22T05:59:07.948Z,13.10
2023-03-22T06:01:35.104Z,13.10
2023-03-22T06:04:02.304Z,13.10
2023-03-22T06:06:34.024Z,13.00
2023-03-22T06:09:16.001Z,13.00
2023-03-22T06:11:50.862Z,13.10
2023-03-22T06:14:18.052Z,13.00
2023-03-22T06:16:50.133Z,13.10
2023-03-22T06:19:17.280Z,13.10
2023-03-22T06:21:48.925Z,13.10
2023-03-22T06:24:16.091Z,13.10
2023-03-22T06:26:43.209Z,13.10
2023-03-22T06:29:14.975Z,13.10
2023-03-22T06:31:44.120Z,13.10
2023-03-22T06:34:11.229Z,13.10
2023-03-22T06:36:38.359Z,13.10
2023-03-22T06:39:08.258Z,13.10
2023-03-22T06:41:37.522Z,13.10
2023-03-22T06:44:11.471Z,13.10
2023-03-22T06:46:38.720Z,13.10
2023-03-22T06:49:12.642Z,13.10
2023-03-22T06:51:42.332Z,13.10
2023-03-22T06:54:13.294Z,13.10
2023-03-22T06:56:40.414Z,13.10
2023-03-22T06:59:07.537Z,13.10
2023-03-22T07:01:34.745Z,13.10
2023-03-22T07:04:06.801Z,13.20
2023-03-22T07:06:33.936Z,13.20
2023-03-22T07:09:06.283Z,13.20
2023-03-22T07:11:33.410Z,13.30
2023-03-22T07:14:01.486Z,13.30
2023-03-22T07:16:28.753Z,13.30
2023-03-22T07:18:58.268Z,13.30
2023-03-22T07:21:27.572Z,13.30
2023-03-22T07:23:55.386Z,13.30
2023-03-22T07:26:26.314Z,13.30
2023-03-22T07:28:56.354Z,13.40
2023-03-22T07:31:26.043Z,13.40
2023-03-22T07:33:55.526Z,13.40
2023-03-22T07:36:25.806Z,13.50
2023-03-22T07:38:55.026Z,13.50
2023-03-22T07:41:25.825Z,13.50
2023-03-22T07:43:58.378Z,13.50
2023-03-22T07:46:36.679Z,13.60
2023-03-22T07:49:08.450Z,13.60
2023-03-22T07:51:37.798Z,13.60
2023-03-22T07:54:07.890Z,13.60
2023-03-22T07:56:37.325Z,13.60
2023-03-22T07:59:07.333Z,13.70
2023-03-22T08:01:39.456Z,13.70
2023-03-22T08:04:06.895Z,13.80
2023-03-22T08:06:40.439Z,13.90
2023-03-22T08:09:08.474Z,13.90
2023-03-22T08:11:36.655Z,14.00
2023-03-22T08:14:06.437Z,14.00
2023-03-22T08:16:38.609Z,14.00
2023-03-22T08:19:06.744Z,14.10
2023-03-22T08:21:36.360Z,14.10
2023-03-22T08:24:09.038Z,14.10
2023-03-22T08:26:37.615Z,14.10
2023-03-22T08:29:07.614Z,14.10
2023-03-22T08:31:34.793Z,14.10
2023-03-22T08:34:06.363Z,14.10
2023-03-22T08:36:38.219Z,14.20
2023-03-22T08:39:08.418Z,14.20
2023-03-22T08:41:43.157Z,14.30
2023-03-22T08:44:15.393Z,14.30
2023-03-22T08:46:44.846Z,14.30
2023-03-22T08:49:15.086Z,14.40
2023-03-22T08:51:45.082Z,14.40
2023-03-22T08:54:14.773Z,14.50
2023-03-22T08:56:48.360Z,14.60
2023-03-22T08:59:26.285Z,14.60
2023-03-22T09:01:55.869Z,14.70
2023-03-22T09:04:26.330Z,14.80
2023-03-22T09:06:53.514Z,14.90
2023-03-22T09:09:20.782Z,14.90
2023-03-22T09:11:47.929Z,15.00
2023-03-22T09:14:15.087Z,15.10
2023-03-22T09:16:45.553Z,15.10
2023-03-22T09:19:15.526Z,15.20
2023-03-22T09:21:45.624Z,15.30
2023-03-22T09:24:12.743Z,15.30
2023-03-22T09:26:39.924Z,15.30
2023-03-22T09:29:13.223Z,15.40
2023-03-22T09:31:43.564Z,15.40
2023-03-22T09:34:11.099Z,15.40
2023-03-22T09:36:40.758Z,15.30
2023-03-22T09:39:10.378Z,15.30
2023-03-22T09:42:18.169Z,15.20
2023-03-22T09:44:46.689Z,15.30
2023-03-22T09:47:18.634Z,15.30
2023-03-22T09:49:53.693Z,15.30
2023-03-22T09:52:21.812Z,15.30
2023-03-22T09:54:53.742Z,15.20
2023-03-22T09:57:21.002Z,15.30
2023-03-22T09:59:57.101Z,15.30
2023-03-22T10:02:59.015Z,15.30
2023-03-22T10:05:38.944Z,15.30
2023-03-22T10:08:23.764Z,15.30
2023-03-22T10:10:52.775Z,15.30
2023-03-22T10:13:42.947Z,15.30
2023-03-22T10:16:16.719Z,15.30
2023-03-22T10:18:54.201Z,15.30
2023-03-22T10:21:26.420Z,15.30
2023-03-22T10:24:07.769Z,15.30
2023-03-22T10:26:40.578Z,15.30
2023-03-22T10:29:20.739Z,15.40
2023-03-22T10:31:50.559Z,15.30
2023-03-22T10:34:31.322Z,15.30
2023-03-22T10:37:04.177Z,15.30
2023-03-22T10:39:39.391Z,15.30
2023-03-22T10:42:17.185Z,15.30
2023-03-22T10:44:49.570Z,15.30
2023-03-22T10:47:25.478Z,15.30
2023-03-22T10:49:57.172Z,15.30
2023-03-22T10:52:47.965Z,15.30
2023-03-22T10:55:17.019Z,15.30
2023-03-22T10:58:01.527Z,15.30
2023-03-22T11:00:29.090Z,15.30
2023-03-22T11:03:01.922Z,15.30
2023-03-22T11:05:30.334Z,15.30
2023-03-22T11:08:06.786Z,15.30
2023-03-22T11:10:36.425Z,15.30
2023-03-22T11:13:09.671Z,15.30
2023-03-22T11:15:41.274Z,15.30
2023-03-22T11:18:12.350Z,15.40
2023-03-22T11:20:55.745Z,15.50
2023-03-22T11:23:23.984Z,15.60
2023-03-22T11:25:58.711Z,15.60
2023-03-22T11:28:37.098Z,15.70
2023-03-22T11:31:05.751Z,15.70
2023-03-22T11:33:35.732Z,15.70
2023-03-22T11:36:19.092Z,15.80
2023-03-22T11:38:47.432Z,15.80
2023-03-22T11:41:22.837Z,15.80
2023-03-22T11:44:03.415Z,15.80
2023-03-22T11:46:38.535Z,15.70
2023-03-22T11:49:09.087Z,15.70
2023-03-22T11:51:44.717Z,15.60
2023-03-22T11:54:29.248Z,15.60
2023-03-22T11:57:03.914Z,15.60
2023-03-22T11:59:38.563Z,15.60
2023-03-22T12:02:28.406Z,15.60
2023-03-22T12:05:06.134Z,15.60
2023-03-22T12:07:35.561Z,15.50
2023-03-22T12:10:24.767Z,15.50
2023-03-22T12:12:58.068Z,15.50
2023-03-22T12:15:47.508Z,15.50
2023-03-22T12:18:32.520Z,15.50
2023-03-22T12:21:01.182Z,15.60
2023-03-22T12:23:37.182Z,15.60
2023-03-22T12:26:07.138Z,15.70
2023-03-22T12:29:15.025Z,15.80
2023-03-22T12:32:07.186Z,15.90
2023-03-22T12:34:48.151Z,16.00
2023-03-22T12:37:29.290Z,16.00
2023-03-22T12:40:09.123Z,15.90
2023-03-22T12:42:50.911Z,16.00
2023-03-22T12:45:26.485Z,16.00
2023-03-22T12:48:27.541Z,15.90
2023-03-22T12:51:05.552Z,16.00
2023-03-22T12:53:44.354Z,16.00
2023-03-22T12:56:39.800Z,16.00
2023-03-22T12:59:17.735Z,16.00
2023-03-22T13:01:59.102Z,15.90
2023-03-22T13:04:37.140Z,15.90
2023-03-22T13:07:16.299Z,15.90
2023-03-22T13:09:51.739Z,15.90
2023-03-22T13:12:21.696Z,15.90
2023-03-22T13:14:56.365Z,15.90
2023-03-22T13:17:23.450Z,15.90
2023-03-22T13:20:11.515Z,15.90
2023-03-22T13:22:41.667Z,15.90
2023-03-22T13:25:14.718Z,15.90
2023-03-22T13:27:57.318Z,15.90
2023-03-22T13:30:32.393Z,15.90
2023-03-22T13:33:11.198Z,15.90
2023-03-22T13:35:44.640Z,15.90
2023-03-22T13:38:23.845Z,15.90
2023-03-22T13:41:13.753Z,15.90
2023-03-22T13:43:43.211Z,15.80
2023-03-22T13:46:27.069Z,15.80
2023-03-22T13:49:22.202Z,15.90
2023-03-22T13:51:50.390Z,15.90
2023-03-22T13:54:28.696Z,15.80
2023-03-22T13:57:03.798Z,15.80
2023-03-22T14:00:08.824Z,15.80
2023-03-22T14:02:42.274Z,15.80
2023-03-22T14:05:16.553Z,15.80
2023-03-22T14:07:58.184Z,15.70
2023-03-22T14:10:25.630Z,15.80
2023-03-22T14:12:56.864Z,15.80
2023-03-22T14:15:30.085Z,15.80
2023-03-22T14:18:18.562Z,15.90
2023-03-22T14:20:53.194Z,15.90
